createdAt,value
2019-04-21T00:00:54.205Z,15.45
2019-04-21T00:03:33.390Z,13.83
2019-04-21T00:06:15.580Z,14.05
2019-04-21T00:08:48.409Z,14.70
2019-04-21T00:11:29.850Z,15.73
2019-04-21T00:13:52.591Z,15.68
2019-04-21T00:16:17.171Z,14.98
2019-04-21T00:19:07.190Z,15.28
2019-04-21T00:21:40.405Z,14.63
2019-04-21T00:27:07.015Z,14.63
2019-04-21T00:29:56.261Z,15.53
2019-04-21T00:32:10.419Z,14.75
2019-04-21T00:34:28.173Z,14.30
2019-04-21T00:37:12.135Z,14.63
2019-04-21T00:42:22.846Z,14.05
2019-04-21T00:45:00.520Z,16.57
2019-04-21T00:47:34.067Z,16.50
2019-04-21T00:50:05.219Z,16.70
2019-04-21T00:55:34.147Z,16.02
2019-04-21T00:58:03.821Z,17.37
2019-04-21T01:00:32.477Z,17.27
2019-04-21T01:03:12.827Z,18.23
2019-04-21T01:05:48.353Z,21.65
2019-04-21T01:08:14.246Z,19.20
2019-04-21T01:10:38.108Z,19.85
2019-04-21T01:13:27.834Z,19.92
2019-04-21T01:16:00.797Z,20.07
2019-04-21T01:18:31.431Z,19.10
2019-04-21T01:20:41.168Z,17.50
2019-04-21T01:23:12.845Z,18.75
2019-04-21T01:25:55.447Z,18.10
2019-04-21T01:28:34.030Z,17.40
2019-04-21T01:31:08.813Z,17.20
2019-04-21T01:33:44.963Z,17.92
2019-04-21T01:36:14.582Z,16.17
2019-04-21T01:38:58.983Z,16.82
2019-04-21T01:41:25.516Z,17.12
2019-04-21T01:43:56.985Z,17.55
2019-04-21T01:46:30.911Z,17.55
2019-04-21T01:49:03.318Z,18.20
2019-04-21T01:51:57.942Z,18.17
2019-04-21T01:54:23.783Z,19.77
2019-04-21T01:57:03.372Z,18.55
2019-04-21T01:59:38.028Z,17.92
2019-04-21T02:02:19.350Z,18.57
2019-04-21T02:04:57.576Z,18.15
2019-04-21T02:07:24.892Z,18.83
2019-04-21T02:09:59.351Z,18.40
2019-04-21T02:12:27.902Z,19.43
2019-04-21T02:15:04.562Z,18.77
2019-04-21T02:17:36.768Z,19.23
2019-04-21T02:20:02.735Z,19.97
2019-04-21T02:22:59.144Z,18.93
2019-04-21T02:25:16.583Z,19.27
2019-04-21T02:27:54.845Z,20.43
2019-04-21T02:30:36.974Z,19.57
2019-04-21T02:33:12.857Z,20.37
2019-04-21T02:38:23.842Z,19.02
2019-04-21T02:40:47.333Z,20.60
2019-04-21T02:43:22.898Z,20.57
2019-04-21T02:50:50.040Z,19.07
2019-04-21T02:58:51.190Z,20.80
2019-04-21T03:01:25.991Z,20.35
2019-04-21T03:03:52.753Z,21.23
2019-04-21T03:06:59.946Z,21.42
2019-04-21T03:09:18.573Z,20.48
2019-04-21T03:11:57.942Z,21.33
2019-04-21T03:16:47.229Z,21.67
2019-04-21T03:19:37.956Z,22.45
2019-04-21T03:22:07.138Z,23.10
2019-04-21T03:25:00.886Z,22.82
2019-04-21T03:27:18.676Z,21.03
2019-04-21T03:29:47.747Z,21.45
2019-04-21T03:35:26.201Z,22.20
2019-04-21T03:37:25.167Z,23.27
2019-04-21T03:40:05.146Z,23.70
2019-04-21T03:45:06.718Z,23.12
2019-04-21T03:50:29.702Z,22.60
2019-04-21T03:52:48.186Z,24.30
2019-04-21T04:00:59.513Z,23.50
2019-04-21T04:06:20.833Z,25.35
2019-04-21T04:08:57.801Z,24.43
2019-04-21T04:14:09.761Z,27.13
2019-04-21T04:24:19.598Z,22.98
2019-04-21T04:26:49.017Z,21.87
2019-04-21T04:29:19.857Z,22.85
2019-04-21T04:34:27.612Z,20.25
2019-04-21T04:37:05.908Z,21.42
2019-04-21T04:50:15.447Z,20.43
2019-04-21T04:55:06.784Z,20.97
2019-04-21T04:57:57.746Z,20.65
2019-04-21T05:02:48.840Z,19.77
2019-04-21T05:05:26.764Z,21.17
2019-04-21T05:07:58.006Z,19.40
2019-04-21T05:10:44.822Z,18.48
2019-04-21T05:12:56.980Z,17.95
2019-04-21T05:15:42.116Z,17.77
2019-04-21T05:18:05.395Z,18.02
2019-04-21T05:20:50.648Z,16.03
2019-04-21T05:23:06.333Z,16.77
2019-04-21T05:25:37.869Z,16.85
2019-04-21T05:28:09.066Z,16.45
2019-04-21T05:33:33.224Z,14.65
2019-04-21T05:36:23.907Z,13.50
2019-04-21T05:38:59.557Z,12.95
2019-04-21T05:41:29.140Z,13.75
2019-04-21T05:44:12.811Z,13.75
2019-04-21T05:46:49.572Z,12.85
2019-04-21T05:49:20.590Z,12.93
2019-04-21T05:51:58.344Z,11.97
2019-04-21T05:54:44.088Z,11.43
2019-04-21T05:59:43.616Z,11.48
2019-04-21T06:02:22.397Z,10.57
2019-04-21T06:05:05.868Z,10.72
2019-04-21T06:07:30.232Z,9.30
2019-04-21T06:09:59.587Z,9.38
2019-04-21T06:12:38.261Z,9.80
2019-04-21T06:15:12.293Z,9.60
2019-04-21T06:17:44.569Z,9.13
2019-04-21T06:20:13.678Z,9.60
2019-04-21T06:22:54.800Z,8.95
2019-04-21T06:27:57.468Z,8.80
2019-04-21T06:30:32.136Z,8.38
2019-04-21T06:33:00.290Z,7.45
2019-04-21T06:36:21.446Z,4.90
2019-04-21T06:38:56.952Z,5.67
2019-04-21T06:41:21.377Z,5.50
2019-04-21T06:43:59.936Z,5.12
2019-04-21T06:46:33.447Z,4.50
2019-04-21T06:51:32.296Z,3.83
2019-04-21T06:54:09.502Z,4.67
2019-04-21T06:56:46.461Z,5.60
2019-04-21T06:59:09.629Z,5.17
2019-04-21T07:01:51.457Z,5.60
2019-04-21T07:06:57.491Z,6.33
2019-04-21T07:09:48.390Z,6.28
2019-04-21T07:11:59.852Z,6.60
2019-04-21T07:14:38.461Z,5.87
2019-04-21T07:17:16.228Z,4.93
2019-04-21T07:22:17.751Z,5.10
2019-04-21T07:24:54.018Z,4.62
2019-04-21T07:27:23.974Z,4.72
2019-04-21T07:32:29.045Z,3.80
2019-04-21T07:35:03.928Z,3.65
2019-04-21T07:37:35.518Z,4.40
2019-04-21T07:40:05.588Z,3.47
2019-04-21T07:42:38.057Z,4.10
2019-04-21T07:45:13.006Z,3.90
2019-04-21T07:47:50.787Z,3.98
2019-04-21T07:50:47.489Z,3.70
2019-04-21T07:53:28.761Z,3.15
2019-04-21T07:55:37.359Z,3.00
2019-04-21T07:58:36.390Z,2.98
2019-04-21T08:01:07.416Z,2.80
2019-04-21T08:03:33.639Z,2.65
2019-04-21T08:06:32.009Z,2.47
2019-04-21T08:08:42.187Z,3.52
2019-04-21T08:11:09.600Z,2.85
2019-04-21T08:13:48.797Z,2.85
2019-04-21T08:16:25.396Z,3.00
2019-04-21T08:18:52.431Z,2.90
2019-04-21T08:21:30.841Z,2.60
2019-04-21T08:23:55.688Z,2.87
2019-04-21T08:26:36.991Z,3.10
2019-04-21T08:29:14.490Z,2.65
2019-04-21T08:31:50.029Z,3.27
2019-04-21T08:34:14.015Z,4.67
2019-04-21T08:36:44.899Z,3.12
2019-04-21T08:39:24.112Z,3.40
2019-04-21T08:41:55.949Z,2.92
2019-04-21T08:44:33.358Z,3.27
2019-04-21T08:47:09.645Z,3.02
2019-04-21T08:49:35.087Z,3.80
2019-04-21T08:52:20.979Z,3.33
2019-04-21T08:54:47.096Z,3.42
2019-04-21T08:57:37.695Z,3.52
2019-04-21T09:02:47.496Z,3.07
2019-04-21T09:05:20.651Z,3.50
2019-04-21T09:07:57.489Z,3.33
2019-04-21T09:10:33.421Z,3.92
2019-04-21T09:12:58.916Z,3.83
2019-04-21T09:15:33.753Z,3.37
2019-04-21T09:18:05.373Z,3.52
2019-04-21T09:20:47.362Z,3.60
2019-04-21T09:23:18.101Z,3.65
2019-04-21T09:25:46.232Z,3.87
2019-04-21T09:28:18.309Z,3.70
2019-04-21T09:30:43.393Z,3.77
2019-04-21T09:33:09.261Z,3.60
2019-04-21T09:35:50.070Z,3.27
2019-04-21T09:38:27.580Z,3.50
2019-04-21T09:40:54.389Z,3.60
2019-04-21T09:43:35.480Z,3.50
2019-04-21T09:45:58.892Z,3.30
2019-04-21T09:48:45.650Z,2.98
2019-04-21T09:51:06.579Z,3.52
2019-04-21T09:53:42.222Z,3.10
2019-04-21T09:56:17.849Z,3.25
2019-04-21T09:58:49.548Z,3.40
2019-04-21T10:01:28.250Z,3.08
2019-04-21T10:03:57.220Z,3.58
2019-04-21T10:06:26.298Z,3.52
2019-04-21T10:09:04.024Z,3.00
2019-04-21T10:11:31.143Z,3.52
2019-04-21T10:14:03.309Z,3.62
2019-04-21T10:16:36.486Z,3.58
2019-04-21T10:19:08.862Z,3.67
2019-04-21T10:21:40.395Z,3.80
2019-04-21T10:24:12.505Z,3.92
2019-04-21T10:26:45.146Z,3.90
2019-04-21T10:29:23.721Z,3.60
2019-04-21T10:31:50.527Z,3.35
2019-04-21T10:34:23.105Z,3.27
2019-04-21T10:37:00.744Z,3.50
2019-04-21T10:39:33.662Z,3.75
2019-04-21T10:42:05.672Z,3.70
2019-04-21T10:44:37.311Z,3.60
2019-04-21T10:47:08.849Z,3.37
2019-04-21T10:49:40.369Z,3.55
2019-04-21T10:52:13.327Z,3.72
2019-04-21T10:57:22.178Z,3.65
2019-04-21T10:59:55.919Z,3.37
2019-04-21T11:02:34.884Z,4.12
2019-04-21T11:05:09.082Z,3.45
2019-04-21T11:08:05.123Z,3.70
2019-04-21T11:10:25.784Z,4.05
2019-04-21T11:12:58.618Z,3.90
2019-04-21T11:15:31.366Z,3.60
2019-04-21T11:18:04.015Z,3.92
2019-04-21T11:20:35.467Z,3.40
2019-04-21T11:23:08.364Z,4.22
2019-04-21T11:25:41.966Z,4.35
2019-04-21T11:30:46.702Z,4.08
2019-04-21T11:33:21.304Z,4.70
2019-04-21T11:35:53.283Z,4.37
2019-04-21T11:38:55.818Z,4.17
2019-04-21T11:41:09.886Z,4.28
2019-04-21T11:43:43.231Z,4.00
2019-04-21T11:46:16.147Z,3.98
2019-04-21T11:51:19.511Z,3.85
2019-04-21T11:53:50.906Z,3.98
2019-04-21T11:56:25.117Z,4.10
2019-04-21T12:01:29.813Z,3.72
2019-04-21T12:04:01.649Z,3.75
2019-04-21T12:06:40.916Z,3.90
2019-04-21T12:09:09.959Z,4.05
2019-04-21T12:11:41.547Z,4.33
2019-04-21T12:14:14.228Z,4.30
2019-04-21T12:16:46.901Z,4.10
2019-04-21T12:19:22.625Z,4.28
2019-04-21T12:22:05.098Z,3.83
2019-04-21T12:24:31.227Z,4.27
2019-04-21T12:27:02.433Z,4.00
2019-04-21T12:29:33.838Z,3.62
2019-04-21T12:32:16.009Z,4.10
2019-04-21T12:34:50.505Z,4.20
2019-04-21T12:37:20.535Z,4.15
2019-04-21T12:39:52.911Z,4.20
2019-04-21T12:42:24.902Z,4.05
2019-04-21T12:44:57.314Z,4.00
2019-04-21T12:47:30.015Z,4.03
2019-04-21T12:50:02.731Z,3.52
2019-04-21T12:52:35.725Z,3.45
2019-04-21T12:55:09.802Z,3.60
2019-04-21T12:57:43.538Z,3.70
2019-04-21T13:00:18.527Z,3.67
2019-04-21T13:02:49.908Z,3.27
2019-04-21T13:05:22.660Z,3.30
2019-04-21T13:07:55.502Z,3.05
2019-04-21T13:10:26.883Z,3.40
2019-04-21T13:12:59.728Z,3.30
2019-04-21T13:15:31.698Z,3.50
2019-04-21T13:18:02.915Z,3.42
2019-04-21T13:20:35.888Z,3.60
2019-04-21T13:23:08.570Z,3.92
2019-04-21T13:25:41.784Z,3.30
2019-04-21T13:28:14.689Z,3.47
2019-04-21T13:30:48.730Z,3.63
2019-04-21T13:33:21.031Z,3.12
2019-04-21T13:35:55.263Z,3.42
2019-04-21T13:38:35.154Z,3.30
2019-04-21T13:41:29.651Z,3.77
2019-04-21T13:43:47.511Z,3.33
2019-04-21T13:46:27.175Z,3.40
2019-04-21T13:49:05.243Z,3.37
2019-04-21T13:51:41.633Z,3.47
2019-04-21T13:54:14.033Z,4.10
2019-04-21T13:56:47.998Z,4.40
2019-04-21T13:59:22.484Z,3.95
2019-04-21T14:01:56.761Z,4.05
2019-04-21T14:04:29.930Z,4.15
2019-04-21T14:07:02.505Z,4.22
2019-04-21T14:09:43.899Z,4.40
2019-04-21T14:14:42.042Z,3.47
2019-04-21T14:17:15.141Z,3.50
2019-04-21T14:19:49.262Z,4.28
2019-04-21T14:22:24.357Z,4.85
2019-04-21T14:25:01.821Z,4.15
2019-04-21T14:27:36.521Z,3.90
2019-04-21T14:30:10.492Z,3.70
2019-04-21T14:33:02.326Z,3.95
2019-04-21T14:35:36.715Z,4.62
2019-04-21T14:38:10.837Z,3.77
2019-04-21T14:43:16.566Z,4.17
2019-04-21T14:46:06.441Z,4.03
2019-04-21T14:48:57.235Z,4.40
2019-04-21T14:51:38.967Z,4.30
2019-04-21T14:54:12.449Z,3.98
2019-04-21T14:56:44.962Z,3.70
2019-04-21T15:01:50.049Z,3.83
2019-04-21T15:04:22.879Z,3.85
2019-04-21T15:06:55.521Z,4.22
2019-04-21T15:09:27.189Z,4.08
2019-04-21T15:12:00.195Z,4.15
2019-04-21T15:14:33.941Z,5.62
2019-04-21T15:17:05.525Z,4.00
2019-04-21T15:19:38.407Z,4.15
2019-04-21T15:22:12.332Z,4.80
2019-04-21T15:24:44.510Z,4.70
2019-04-21T15:27:16.859Z,4.05
2019-04-21T15:29:51.065Z,4.33
2019-04-21T15:34:56.350Z,4.58
2019-04-21T15:37:29.133Z,4.47
2019-04-21T15:40:18.127Z,4.40
2019-04-21T15:42:42.192Z,4.62
2019-04-21T15:45:14.604Z,4.35
2019-04-21T15:47:47.499Z,8.60
2019-04-21T15:52:53.842Z,4.37
2019-04-21T15:55:44.515Z,4.25
2019-04-21T15:58:22.776Z,4.00
2019-04-21T16:00:56.431Z,4.70
2019-04-21T16:03:31.118Z,4.30
2019-04-21T16:08:35.240Z,4.28
2019-04-21T16:11:11.092Z,4.05
2019-04-21T16:13:41.725Z,4.45
2019-04-21T16:16:14.661Z,4.22
2019-04-21T16:18:46.262Z,4.47
2019-04-21T16:21:18.074Z,4.47
2019-04-21T16:23:50.765Z,4.60
2019-04-21T16:26:22.573Z,4.87
2019-04-21T16:28:55.279Z,4.90
2019-04-21T16:31:27.904Z,4.90
2019-04-21T16:34:00.935Z,5.58
2019-04-21T16:36:33.874Z,5.47
2019-04-21T16:39:07.339Z,6.35
2019-04-21T16:41:40.384Z,5.83
2019-04-21T16:44:13.405Z,5.90
2019-04-21T16:46:45.454Z,6.35
2019-04-21T16:49:17.881Z,6.55
2019-04-21T16:52:12.190Z,6.87
2019-04-21T16:54:47.830Z,7.12
2019-04-21T16:57:39.815Z,6.60
2019-04-21T17:00:26.418Z,6.28
2019-04-21T17:02:48.059Z,7.20
2019-04-21T17:05:30.049Z,6.42
2019-04-21T17:08:03.952Z,6.37
2019-04-21T17:10:36.057Z,6.60
2019-04-21T17:13:09.887Z,6.97
2019-04-21T17:15:53.152Z,7.10
2019-04-21T17:18:33.115Z,7.28
2019-04-21T17:20:55.389Z,7.78
2019-04-21T17:23:22.226Z,8.10
2019-04-21T17:25:55.190Z,8.78
2019-04-21T17:28:27.843Z,7.33
2019-04-21T17:31:00.111Z,7.90
2019-04-21T17:33:33.863Z,7.83
2019-04-21T17:36:07.182Z,8.13
2019-04-21T17:38:39.717Z,8.13
2019-04-21T17:41:25.109Z,8.75
2019-04-21T17:46:22.956Z,9.68
2019-04-21T17:48:50.849Z,8.65
2019-04-21T17:51:25.643Z,9.45
2019-04-21T17:54:13.669Z,9.50
2019-04-21T17:57:16.288Z,8.93
2019-04-21T17:59:45.134Z,9.90
2019-04-21T18:02:05.151Z,9.85
2019-04-21T18:04:43.177Z,10.90
2019-04-21T18:07:21.533Z,13.90
2019-04-21T18:12:34.886Z,19.70
2019-04-21T18:14:59.838Z,22.80
2019-04-21T18:17:24.666Z,25.05
2019-04-21T18:19:57.278Z,23.80
2019-04-21T18:22:39.536Z,24.80
2019-04-21T18:25:12.472Z,26.12
2019-04-21T18:27:43.132Z,27.48
2019-04-21T18:30:52.358Z,31.10
2019-04-21T18:33:29.928Z,28.35
2019-04-21T18:36:02.892Z,31.25
2019-04-21T18:39:00.068Z,30.52
2019-04-21T18:41:19.618Z,30.20
2019-04-21T18:47:07.368Z,29.72
2019-04-21T18:49:41.827Z,32.58
2019-04-21T18:52:22.519Z,34.30
2019-04-21T18:55:02.889Z,36.63
2019-04-21T18:57:30.633Z,38.58
2019-04-21T18:59:55.345Z,38.83
2019-04-21T19:02:31.723Z,37.65
2019-04-21T19:05:07.858Z,33.60
2019-04-21T19:07:55.802Z,34.65
2019-04-21T19:10:35.969Z,36.68
2019-04-21T19:15:33.845Z,38.73
2019-04-21T19:20:44.808Z,37.15
2019-04-21T19:26:03.723Z,37.75
2019-04-21T19:28:27.056Z,40.78
2019-04-21T19:31:04.945Z,40.12
2019-04-21T19:33:24.107Z,37.95
2019-04-21T19:35:47.729Z,39.05
2019-04-21T19:38:30.194Z,36.28
2019-04-21T19:41:10.395Z,35.88
2019-04-21T19:43:49.187Z,36.88
2019-04-21T19:46:19.361Z,39.08
2019-04-21T19:49:01.190Z,35.95
2019-04-21T19:51:23.208Z,36.03
2019-04-21T19:53:53.860Z,36.93
2019-04-21T19:56:16.188Z,35.60
2019-04-21T19:58:50.780Z,33.03
2019-04-21T20:01:23.552Z,34.65
2019-04-21T20:03:59.108Z,34.30
2019-04-21T20:06:45.518Z,34.38
2019-04-21T20:09:22.010Z,32.15
2019-04-21T20:11:55.495Z,33.73
2019-04-21T20:16:59.258Z,33.47
2019-04-21T20:19:22.927Z,35.67
2019-04-21T20:21:56.937Z,34.20
2019-04-21T20:24:32.027Z,35.23
2019-04-21T20:27:11.404Z,33.08
2019-04-21T20:29:57.992Z,34.85
2019-04-21T20:32:45.313Z,34.58
2019-04-21T20:35:12.479Z,34.00
2019-04-21T20:37:31.692Z,34.50
2019-04-21T20:39:58.393Z,34.08
2019-04-21T20:42:38.999Z,34.67
2019-04-21T20:45:32.003Z,32.98
2019-04-21T20:47:39.421Z,34.40
2019-04-21T20:50:19.687Z,33.23
2019-04-21T20:53:00.020Z,31.50
2019-04-21T20:55:22.407Z,26.87
2019-04-21T20:57:59.706Z,28.80
2019-04-21T21:00:45.694Z,29.57
2019-04-21T21:03:12.024Z,30.68
2019-04-21T21:05:42.473Z,30.87
2019-04-21T21:08:29.514Z,29.70
2019-04-21T21:13:41.329Z,28.38
2019-04-21T21:19:15.774Z,29.72
2019-04-21T21:21:11.586Z,31.03
2019-04-21T21:23:47.780Z,31.45
2019-04-21T21:26:25.632Z,31.37
2019-04-21T21:28:51.421Z,30.40
2019-04-21T21:31:35.723Z,31.93
2019-04-21T21:34:21.178Z,31.70
2019-04-21T21:36:36.471Z,34.40
2019-04-21T21:39:09.617Z,31.70
2019-04-21T21:41:31.796Z,33.53
2019-04-21T21:44:14.848Z,30.57
2019-04-21T21:46:53.833Z,29.70
2019-04-21T21:49:36.971Z,31.40
2019-04-21T21:51:59.274Z,31.62
2019-04-21T21:54:25.586Z,30.25
2019-04-21T21:56:58.557Z,31.47
2019-04-21T21:59:33.664Z,32.48
2019-04-21T22:02:05.121Z,32.33
2019-04-21T22:04:38.944Z,32.42
2019-04-21T22:07:15.152Z,32.50
2019-04-21T22:09:44.309Z,31.07
2019-04-21T22:12:18.175Z,29.92
2019-04-21T22:14:54.090Z,30.50
2019-04-21T22:17:41.698Z,31.07
2019-04-21T22:20:13.407Z,30.82
2019-04-21T22:22:42.560Z,30.17
2019-04-21T22:25:12.716Z,28.92
2019-04-21T22:27:41.052Z,30.10
2019-04-21T22:30:14.718Z,29.48
2019-04-21T22:32:53.684Z,28.55
2019-04-21T22:35:27.152Z,28.42
2019-04-21T22:38:10.816Z,27.73
2019-04-21T22:40:44.048Z,25.62
2019-04-21T22:43:15.904Z,26.62
2019-04-21T22:48:15.559Z,26.73
2019-04-21T22:50:42.354Z,28.12
2019-04-21T22:53:17.204Z,27.45
2019-04-21T22:55:49.512Z,27.58
2019-04-21T22:58:28.294Z,27.48
2019-04-21T23:00:57.123Z,27.80
2019-04-21T23:03:28.888Z,27.50
2019-04-21T23:06:11.059Z,27.40
2019-04-21T23:08:40.062Z,27.45
2019-04-21T23:11:12.420Z,26.82
2019-04-21T23:13:51.669Z,27.85
2019-04-21T23:16:21.470Z,26.52
2019-04-21T23:19:14.331Z,26.60
2019-04-21T23:21:48.939Z,26.67
2019-04-21T23:24:17.436Z,25.30
2019-04-21T23:26:48.658Z,25.77
2019-04-21T23:29:25.730Z,26.42
2019-04-21T23:31:55.110Z,23.83
2019-04-21T23:34:18.371Z,24.65
2019-04-21T23:36:53.056Z,24.43
2019-04-21T23:39:23.368Z,27.00
2019-04-21T23:41:55.418Z,27.35
2019-04-21T23:44:28.169Z,26.05
2019-04-21T23:47:03.411Z,25.00
2019-04-21T23:49:43.007Z,25.97
2019-04-21T23:52:11.921Z,25.08
2019-04-21T23:54:41.070Z,26.15
2019-04-21T23:57:20.845Z,23.85
2019-04-21T23:59:50.402Z,24.80
